TAF KRVS
KRVS 090520Z 0906/1006 17010G17KT P6SM BKN250 FM091500 20008KT P6SM SCT250 FM091900 24008KT P6SM SCT250 FM100000 VRB03KT P6SM BKN250=
METAR KRVS
WC KRVS
WS KRVS
WV KRVS